Time;durP1;ratioP1;P1;durP2;ratioP2;P2;SDS_P1;SDS_P2;PMS_P1;PMS_P2;Temp;Humidity;BMP_temperature;BMP_pressure;BME280_temperature;BME280_humidity;BME280_pressure;Samples;Min_cycle;Max_cycle;Signal;HPM_P1;HPM_P2
2023/06/26 00:03:38;;;;;;;13.00;8.00;;;;;;;13.70;72.53;99502.10;436374;1256;139958;-63
2023/06/26 00:13:42;;;;;;;9.20;8.30;;;;;;;13.56;73.12;99493.36;436434;1253;140013;-61
2023/06/26 00:23:45;;;;;;;7.60;6.70;;;;;;;13.46;73.75;99491.36;437386;1251;139189;-63
2023/06/26 00:33:48;;;;;;;10.40;6.90;;;;;;;13.36;74.10;99487.84;436602;1256;139756;-63
2023/06/26 00:43:51;;;;;;;9.10;8.30;;;;;;;13.26;74.52;99488.76;436841;1254;140896;-61
2023/06/26 00:53:55;;;;;;;11.40;7.20;;;;;;;13.14;74.87;99479.65;437033;1253;139380;-62
2023/06/26 01:03:57;;;;;;;9.40;7.40;;;;;;;13.02;75.52;99473.89;436918;1251;140049;-63
2023/06/26 01:14:02;;;;;;;9.20;6.80;;;;;;;12.95;75.76;99470.77;436481;1253;140691;-63
2023/06/26 01:24:20;;;;;;;10.20;8.30;;;;;;;12.85;75.97;99461.31;436492;1251;142350;-63
2023/06/26 01:34:23;;;;;;;8.50;7.20;;;;;;;12.76;76.53;99456.35;436196;1256;139215;-60
2023/06/26 01:44:30;;;;;;;9.00;7.40;;;;;;;12.67;76.89;99449.97;436419;1254;140746;-61
2023/06/26 01:54:39;;;;;;;9.50;6.90;;;;;;;12.57;76.84;99443.02;436284;1256;140808;-62
2023/06/26 02:04:42;;;;;;;8.10;6.40;;;;;;;12.45;77.41;99434.59;436464;1256;140549;-63
2023/06/26 02:14:45;;;;;;;7.20;6.30;;;;;;;12.41;77.90;99442.77;436410;1251;142137;-61
2023/06/26 02:24:48;;;;;;;11.90;7.40;;;;;;;12.37;78.29;99430.79;436395;1256;139607;-61
2023/06/26 02:34:51;;;;;;;10.30;7.20;;;;;;;12.36;78.38;99427.23;436440;1256;139593;-61
2023/06/26 02:44:54;;;;;;;10.80;6.80;;;;;;;12.42;78.39;99427.79;436454;1251;140155;-61
2023/06/26 02:54:57;;;;;;;8.90;7.80;;;;;;;12.64;78.52;99438.80;436370;1256;140017;-61
2023/06/26 03:05:01;;;;;;;7.10;6.40;;;;;;;13.51;78.15;99440.83;436384;1254;139226;-61
2023/06/26 03:15:05;;;;;;;9.00;6.00;;;;;;;15.48;75.98;99439.08;436351;1255;139569;-63
2023/06/26 03:25:08;;;;;;;126.60;21.10;;;;;;;17.06;71.04;99436.40;437021;1256;139536;-63
2023/06/26 03:35:11;;;;;;;13.50;7.50;;;;;;;19.23;68.05;99430.67;436608;1256;139548;-62
2023/06/26 03:45:14;;;;;;;8.40;7.00;;;;;;;18.97;64.35;99433.17;436592;1256;140205;-63
2023/06/26 03:55:18;;;;;;;9.20;7.00;;;;;;;18.42;65.24;99436.00;436349;1256;139199;-62
2023/06/26 04:05:22;;;;;;;9.20;7.50;;;;;;;23.24;62.44;99429.99;436453;1251;139106;-62
2023/06/26 04:15:26;;;;;;;7.70;7.00;;;;;;;28.02;53.83;99420.38;436282;1251;139711;-62
2023/06/26 04:25:29;;;;;;;8.20;7.40;;;;;;;30.96;46.98;99416.61;436435;1256;140175;-62
2023/06/26 04:35:36;;;;;;;16.80;8.20;;;;;;;27.74;44.91;99411.86;436447;1254;138901;-62
2023/06/26 04:45:39;;;;;;;10.40;6.70;;;;;;;25.76;48.06;99415.27;436322;1255;139134;-61
2023/06/26 04:55:42;;;;;;;11.20;6.90;;;;;;;31.72;43.19;99411.67;436439;1252;140100;-65
2023/06/26 05:05:46;;;;;;;13.30;7.60;;;;;;;30.41;40.65;99410.93;436640;1254;139201;-62
2023/06/26 05:15:49;;;;;;;8.80;7.30;;;;;;;32.86;39.58;99408.75;436943;1254;139629;-62
2023/06/26 05:25:54;;;;;;;6.90;6.30;;;;;;;39.00;34.20;99408.94;436490;1254;139126;-61
2023/06/26 05:36:00;;;;;;;7.70;5.80;;;;;;;43.09;29.44;99406.58;436624;1251;138478;-61
2023/06/26 05:46:03;;;;;;;6.90;6.20;;;;;;;41.68;27.19;99399.69;436150;1251;139573;-61
2023/06/26 05:56:08;;;;;;;6.90;6.10;;;;;;;41.18;27.65;99396.77;436415;1251;138696;-61
2023/06/26 06:06:11;;;;;;;8.10;5.30;;;;;;;47.17;24.34;99389.29;436366;1254;139938;-61
2023/06/26 06:16:15;;;;;;;6.50;4.80;;;;;;;50.65;21.32;99384.13;436502;1251;139224;-63
2023/06/26 06:26:18;;;;;;;7.90;5.10;;;;;;;52.63;19.21;99376.10;436286;1254;138913;-62
2023/06/26 06:36:21;;;;;;;4.70;4.30;;;;;;;53.83;17.75;99369.02;436453;1254;140184;-62
2023/06/26 06:46:26;;;;;;;5.00;4.70;;;;;;;55.45;15.93;99377.34;436360;1254;138293;-62
2023/06/26 06:56:30;;;;;;;6.70;5.80;;;;;;;57.21;14.61;99370.63;436865;1251;140593;-62
2023/06/26 07:06:34;;;;;;;6.00;5.70;;;;;;;57.62;13.72;99368.72;436545;1251;139239;-62
2023/06/26 07:16:37;;;;;;;6.90;6.60;;;;;;;58.22;12.79;99367.56;436630;1251;138374;-63
2023/06/26 07:26:40;;;;;;;7.50;7.10;;;;;;;58.91;12.14;99368.69;436301;1254;192112;-61
2023/06/26 07:36:49;;;;;;;7.40;6.90;;;;;;;58.76;11.74;99368.27;436265;1251;139486;-61
2023/06/26 07:46:52;;;;;;;4.20;4.00;;;;;;;58.87;11.46;99360.84;436537;1254;138914;-62
2023/06/26 07:56:57;;;;;;;6.40;2.80;;;;;;;54.44;11.90;99347.95;436783;1251;138708;-62
2023/06/26 08:07:01;;;;;;;3.40;3.00;;;;;;;45.57;15.13;99340.67;437460;1249;139688;-61
2023/06/26 08:17:05;;;;;;;3.80;3.20;;;;;;;39.63;17.93;99341.77;437474;1253;138577;-61
2023/06/26 08:27:08;;;;;;;2.90;2.60;;;;;;;36.91;20.12;99345.77;436980;1254;140637;-62
2023/06/26 08:37:11;;;;;;;4.30;3.00;;;;;;;35.72;21.50;99335.08;436759;1250;140064;-60
2023/06/26 08:47:15;;;;;;;3.80;2.90;;;;;;;34.88;22.32;99331.39;436741;1254;138930;-62
2023/06/26 08:57:21;;;;;;;7.50;3.00;;;;;;;33.94;23.24;99329.76;436380;1250;140055;-62
2023/06/26 09:07:24;;;;;;;4.60;2.90;;;;;;;32.93;24.14;99333.56;437253;1252;139068;-61
2023/06/26 09:17:30;;;;;;;3.40;3.10;;;;;;;32.39;24.83;99331.83;436512;1251;139825;-60
2023/06/26 09:27:34;;;;;;;2.50;2.30;;;;;;;32.02;25.53;99327.58;436979;1251;140274;-62
2023/06/26 09:37:37;;;;;;;4.40;3.10;;;;;;;31.83;25.75;99318.36;437143;1251;140126;-60
2023/06/26 09:47:45;;;;;;;4.10;3.70;;;;;;;31.59;26.43;99314.02;436769;1251;138639;-62
2023/06/26 09:57:49;;;;;;;3.00;2.80;;;;;;;31.21;26.34;99307.57;436837;1253;139182;-60
2023/06/26 10:07:54;;;;;;;5.10;3.70;;;;;;;31.03;26.53;99303.27;436327;1251;139195;-59
2023/06/26 10:17:57;;;;;;;3.60;3.30;;;;;;;30.50;27.24;99291.70;436116;1254;139030;-60
2023/06/26 10:28:03;;;;;;;5.30;3.30;;;;;;;30.12;28.15;99286.72;436114;1254;140423;-60
2023/06/26 10:38:06;;;;;;;3.60;3.30;;;;;;;30.51;28.01;99279.89;444003;1251;140904;-61
2023/06/26 10:48:09;;;;;;;4.80;3.50;;;;;;;30.61;28.02;99264.62;436251;1251;138525;-60
2023/06/26 10:58:30;;;;;;;4.30;2.60;;;;;;;30.28;27.77;99261.09;436686;1251;138401;-61
2023/06/26 11:08:46;;;;;;;4.50;3.00;;;;;;;30.01;27.91;99250.23;436985;1251;139662;-60
2023/06/26 11:18:50;;;;;;;3.50;3.30;;;;;;;29.84;28.67;99247.14;437065;1251;139231;-61
2023/06/26 11:28:56;;;;;;;4.40;4.00;;;;;;;29.97;28.53;99236.90;436728;1254;138841;-62
2023/06/26 11:39:01;;;;;;;12.70;4.50;;;;;;;29.91;28.85;99235.24;437036;1253;140335;-61
2023/06/26 11:49:05;;;;;;;7.70;3.30;;;;;;;30.12;28.86;99229.27;436563;1254;139131;-61
2023/06/26 11:59:12;;;;;;;4.90;3.60;;;;;;;29.87;29.15;99218.95;437208;1253;138963;-61
2023/06/26 12:09:19;;;;;;;4.60;4.20;;;;;;;29.58;29.47;99213.03;436557;1253;140511;-65
2023/06/26 12:19:26;;;;;;;9.60;2.90;;;;;;;29.62;29.72;99201.40;436266;1250;140614;-60
2023/06/26 12:29:34;;;;;;;4.20;3.60;;;;;;;29.87;29.54;99191.85;437302;1253;140061;-61
2023/06/26 12:39:51;;;;;;;4.10;3.20;;;;;;;29.76;29.70;99183.90;436573;1254;139915;-62
2023/06/26 12:49:54;;;;;;;8.60;3.30;;;;;;;30.03;29.50;99176.95;436516;1250;138504;-61
2023/06/26 13:00:00;;;;;;;3.80;2.50;;;;;;;30.60;28.65;99170.29;436377;1251;140447;-61
2023/06/26 13:10:06;;;;;;;7.50;3.30;;;;;;;30.89;27.87;99157.02;436262;1254;140259;-61
2023/06/26 13:20:12;;;;;;;3.80;2.70;;;;;;;30.36;27.42;99148.84;440991;1250;141309;-61
2023/06/26 13:30:15;;;;;;;4.90;2.80;;;;;;;30.04;27.69;99137.89;437172;1251;138435;-62
2023/06/26 13:40:21;;;;;;;2.80;2.60;;;;;;;29.95;28.05;99126.44;436851;1254;138339;-59
2023/06/26 13:50:24;;;;;;;3.40;2.50;;;;;;;29.75;28.15;99116.80;436789;1251;139646;-61
2023/06/26 14:00:27;;;;;;;4.00;2.90;;;;;;;29.98;28.60;99110.80;436600;1254;141296;-65
2023/06/26 14:10:30;;;;;;;3.70;2.60;;;;;;;30.26;28.69;99098.72;436493;1250;138407;-65
2023/06/26 14:20:35;;;;;;;4.70;3.60;;;;;;;30.37;28.96;99093.30;436788;1251;140340;-66
2023/06/26 14:30:40;;;;;;;4.10;3.00;;;;;;;30.03;29.42;99080.73;436305;1254;139766;-65
2023/06/26 14:40:43;;;;;;;5.10;3.50;;;;;;;30.21;29.63;99063.47;436602;1251;139043;-65
2023/06/26 14:50:47;;;;;;;3.90;2.80;;;;;;;30.26;29.98;99046.89;436519;1251;139173;-75
2023/06/26 15:00:50;;;;;;;4.20;3.80;;;;;;;30.10;29.98;99041.18;436463;1253;139995;-70
2023/06/26 15:10:53;;;;;;;3.40;3.10;;;;;;;30.06;30.33;99027.07;436309;1254;139302;-69
2023/06/26 15:20:56;;;;;;;3.50;3.20;;;;;;;29.85;30.98;99019.17;436277;1251;138626;-70
2023/06/26 15:31:00;;;;;;;4.00;3.60;;;;;;;29.76;31.47;99009.06;436381;1253;139816;-70
2023/06/26 15:41:03;;;;;;;4.00;3.70;;;;;;;29.50;31.55;99008.92;436559;1251;138994;-72
2023/06/26 15:51:06;;;;;;;5.10;3.60;;;;;;;29.17;31.94;98993.73;436472;1251;138357;-72
2023/06/26 16:01:09;;;;;;;6.10;3.20;;;;;;;29.58;32.19;98980.67;436509;1254;139483;-72
2023/06/26 16:11:13;;;;;;;3.30;3.10;;;;;;;30.05;31.84;98971.99;436470;1251;138575;-71
2023/06/26 16:21:16;;;;;;;8.80;3.70;;;;;;;29.84;31.84;98964.60;436172;1253;138771;-72
2023/06/26 16:31:19;;;;;;;3.10;2.90;;;;;;;29.35;32.56;98967.05;436580;1255;139039;-72
2023/06/26 16:41:23;;;;;;;6.20;3.10;;;;;;;29.03;33.12;98969.08;436391;1254;139069;-73
2023/06/26 16:51:26;;;;;;;4.30;3.40;;;;;;;28.70;33.57;98974.64;436470;1254;139598;-72
2023/06/26 17:01:29;;;;;;;3.90;3.60;;;;;;;28.27;34.15;98974.48;435746;1255;140043;-73
2023/06/26 17:11:32;;;;;;;5.20;3.90;;;;;;;27.74;34.87;98982.23;436340;1253;138799;-74
2023/06/26 17:21:37;;;;;;;5.10;3.80;;;;;;;27.35;35.73;98974.66;435802;1256;139416;-73
2023/06/26 17:31:40;;;;;;;3.40;3.10;;;;;;;26.95;36.62;98971.20;435409;1252;140205;-72
2023/06/26 17:41:44;;;;;;;5.60;3.20;;;;;;;26.39;37.54;98972.58;435727;1255;139628;-73
2023/06/26 17:51:47;;;;;;;6.20;4.00;;;;;;;26.14;38.61;98972.46;436216;1253;139041;-73
2023/06/26 18:01:50;;;;;;;5.40;4.50;;;;;;;25.83;39.16;98968.09;435773;1253;139016;-73
2023/06/26 18:11:53;;;;;;;5.10;3.80;;;;;;;25.31;40.27;98962.84;436056;1256;138323;-73
2023/06/26 18:21:56;;;;;;;8.00;3.40;;;;;;;24.78;41.42;98964.53;435929;1255;140045;-73
2023/06/26 18:31:59;;;;;;;9.60;4.00;;;;;;;24.33;42.47;98963.79;435949;1253;138513;-73
2023/06/26 18:42:03;;;;;;;5.20;4.60;;;;;;;23.99;43.83;98959.84;435851;1251;139256;-74
2023/06/26 18:52:07;;;;;;;7.70;5.50;;;;;;;23.72;45.05;98958.05;435815;1253;140609;-74
2023/06/26 19:02:10;;;;;;;5.70;5.20;;;;;;;23.40;46.21;98949.53;435870;1255;138510;-74
2023/06/26 19:12:13;;;;;;;5.20;4.60;;;;;;;23.09;47.56;98945.79;435938;1253;140006;-73
2023/06/26 19:22:16;;;;;;;4.70;3.90;;;;;;;22.84;48.68;98937.27;436238;1251;138542;-73
2023/06/26 19:32:19;;;;;;;9.30;4.90;;;;;;;22.65;49.67;98934.80;435620;1253;149905;-74
2023/06/26 19:42:22;;;;;;;11.70;6.80;;;;;;;22.59;51.18;98929.86;435751;1251;139714;-72
2023/06/26 19:52:44;;;;;;;5.40;4.80;;;;;;;22.53;52.19;98918.70;436535;1256;76103;-74
2023/06/26 20:03:06;;;;;;;5.50;4.70;;;;;;;22.39;52.95;98911.92;436729;1256;72257;-75
2023/06/26 20:35:09;;;;;;;5.70;5.20;;;;;;;21.99;54.82;98904.72;404032;1266;957508;-65
2023/06/26 20:45:35;;;;;;;13.20;6.10;;;;;;;22.06;55.02;98896.20;431120;1270;139048;-68
2023/06/26 20:56:00;;;;;;;6.60;6.00;;;;;;;21.98;55.55;98895.39;431581;1269;139648;-76
2023/06/26 21:06:24;;;;;;;8.90;6.90;;;;;;;22.00;56.17;98895.89;431139;1270;138429;-72
2023/06/26 21:16:48;;;;;;;7.00;6.20;;;;;;;21.88;57.08;98899.04;432403;1270;138484;-73
2023/06/26 21:27:12;;;;;;;9.50;5.90;;;;;;;21.81;57.37;98891.58;431917;1273;139666;-70
2023/06/26 21:37:36;;;;;;;14.90;10.70;;;;;;;21.71;58.11;98883.97;430505;1267;139061;-70
2023/06/26 21:48:00;;;;;;;14.20;8.20;;;;;;;21.64;58.55;98878.02;430665;1272;139993;-68
2023/06/26 21:58:24;;;;;;;9.10;6.50;;;;;;;21.58;58.30;98861.13;430603;1272;139790;-69
2023/06/26 22:08:48;;;;;;;10.80;7.60;;;;;;;21.55;58.74;98855.46;431016;1270;138529;-68
2023/06/26 22:19:12;;;;;;;9.80;7.30;;;;;;;21.53;58.92;98877.71;430982;1270;139090;-67
2023/06/26 22:29:36;;;;;;;8.80;6.60;;;;;;;21.30;59.66;98946.52;430951;1272;139790;-69
2023/06/26 22:40:00;;;;;;;8.70;5.60;;;;;;;20.65;65.33;98992.98;430404;1271;138913;-68
2023/06/26 22:50:26;;;;;;;6.10;5.20;;;;;;;20.13;68.61;99008.82;430721;1273;140313;-67
2023/06/26 23:00:50;;;;;;;6.00;5.00;;;;;;;19.61;71.17;98997.20;430747;1273;139281;-69
2023/06/26 23:11:14;;;;;;;7.30;5.80;;;;;;;19.17;73.34;98973.83;430807;1272;140344;-69
2023/06/26 23:21:38;;;;;;;4.80;4.40;;;;;;;18.87;75.41;98962.16;430904;1273;140232;-67
2023/06/26 23:32:05;;;;;;;3.40;3.00;;;;;;;18.61;76.49;98959.05;430727;1268;143427;-68
2023/06/26 23:42:28;;;;;;;2.80;2.60;;;;;;;18.47;77.45;98963.80;431092;1272;139600;-68
2023/06/26 23:52:53;;;;;;;2.80;2.20;;;;;;;18.44;78.53;98941.35;431221;1273;139609;-67
